sensor_id;sensor_type;location;lat;lon;timestamp;temperature;humidity
14735;DHT22;7458;49.002;8.472;2023-06-19T00:02:21;26.20;55.00
14735;DHT22;7458;49.002;8.472;2023-06-19T00:04:47;26.30;65.20
14735;DHT22;7458;49.002;8.472;2023-06-19T00:07:13;26.10;64.60
14735;DHT22;7458;49.002;8.472;2023-06-19T00:09:39;26.10;55.00
14735;DHT22;7458;49.002;8.472;2023-06-19T00:12:05;26.10;55.20
14735;DHT22;7458;49.002;8.472;2023-06-19T00:14:31;26.10;55.60
14735;DHT22;7458;49.002;8.472;2023-06-19T00:16:58;25.90;56.20
14735;DHT22;7458;49.002;8.472;2023-06-19T00:19:26;25.70;56.60
14735;DHT22;7458;49.002;8.472;2023-06-19T00:21:52;25.60;57.10
14735;DHT22;7458;49.002;8.472;2023-06-19T00:24:22;25.60;57.00
14735;DHT22;7458;49.002;8.472;2023-06-19T00:26:49;25.60;57.20
14735;DHT22;7458;49.002;8.472;2023-06-19T00:29:14;25.40;57.20
14735;DHT22;7458;49.002;8.472;2023-06-19T00:31:40;25.40;57.50
14735;DHT22;7458;49.002;8.472;2023-06-19T00:34:06;25.10;69.00
14735;DHT22;7458;49.002;8.472;2023-06-19T00:36:32;25.10;58.30
14735;DHT22;7458;49.002;8.472;2023-06-19T00:38:57;25.10;58.40
14735;DHT22;7458;49.002;8.472;2023-06-19T00:41:25;25.10;71.70
14735;DHT22;7458;49.002;8.472;2023-06-19T00:43:52;24.90;59.20
14735;DHT22;7458;49.002;8.472;2023-06-19T00:46:19;24.80;59.90
14735;DHT22;7458;49.002;8.472;2023-06-19T00:48:45;24.10;72.60
14735;DHT22;7458;49.002;8.472;2023-06-19T00:51:11;24.70;72.30
14735;DHT22;7458;49.002;8.472;2023-06-19T00:53:37;24.60;61.30
14735;DHT22;7458;49.002;8.472;2023-06-19T00:56:03;24.60;72.80
14735;DHT22;7458;49.002;8.472;2023-06-19T00:58:30;24.50;61.70
14735;DHT22;7458;49.002;8.472;2023-06-19T01:00:58;24.60;61.80
14735;DHT22;7458;49.002;8.472;2023-06-19T01:03:23;24.60;62.00
14735;DHT22;7458;49.002;8.472;2023-06-19T01:05:53;24.40;74.70
14735;DHT22;7458;49.002;8.472;2023-06-19T01:11:34;24.40;63.10
14735;DHT22;7458;49.002;8.472;2023-06-19T01:14:44;24.40;64.30
14735;DHT22;7458;49.002;8.472;2023-06-19T01:17:29;24.30;65.60
14735;DHT22;7458;49.002;8.472;2023-06-19T01:19:57;24.00;80.90
14735;DHT22;7458;49.002;8.472;2023-06-19T01:22:30;24.00;68.20
14735;DHT22;7458;49.002;8.472;2023-06-19T01:24:57;24.00;82.90
14735;DHT22;7458;49.002;8.472;2023-06-19T01:27:26;23.80;69.80
14735;DHT22;7458;49.002;8.472;2023-06-19T01:29:55;23.80;70.40
14735;DHT22;7458;49.002;8.472;2023-06-19T01:35:22;23.50;73.70
14735;DHT22;7458;49.002;8.472;2023-06-19T01:37:52;23.50;75.10
14735;DHT22;7458;49.002;8.472;2023-06-19T01:40:19;23.40;75.90
14735;DHT22;7458;49.002;8.472;2023-06-19T01:42:52;23.30;76.40
14735;DHT22;7458;49.002;8.472;2023-06-19T01:45:19;23.30;77.00
14735;DHT22;7458;49.002;8.472;2023-06-19T01:47:44;23.10;90.50
14735;DHT22;7458;49.002;8.472;2023-06-19T01:50:11;23.10;79.30
14735;DHT22;7458;49.002;8.472;2023-06-19T01:52:38;22.80;91.70
14735;DHT22;7458;49.002;8.472;2023-06-19T01:55:04;22.90;81.90
14735;DHT22;7458;49.002;8.472;2023-06-19T01:59:57;22.80;85.90
14735;DHT22;7458;49.002;8.472;2023-06-19T02:02:23;22.80;87.50
14735;DHT22;7458;49.002;8.472;2023-06-19T02:04:49;22.80;89.40
14735;DHT22;7458;49.002;8.472;2023-06-19T02:07:14;22.60;90.60
14735;DHT22;7458;49.002;8.472;2023-06-19T02:09:40;22.90;91.20
14735;DHT22;7458;49.002;8.472;2023-06-19T02:12:07;22.60;91.30
14735;DHT22;7458;49.002;8.472;2023-06-19T02:14:33;22.60;91.00
14735;DHT22;7458;49.002;8.472;2023-06-19T02:16:59;22.70;91.60
14735;DHT22;7458;49.002;8.472;2023-06-19T02:19:25;22.80;91.80
14735;DHT22;7458;49.002;8.472;2023-06-19T02:21:50;22.70;91.90
14735;DHT22;7458;49.002;8.472;2023-06-19T02:24:16;22.80;92.10
14735;DHT22;7458;49.002;8.472;2023-06-19T02:26:42;22.70;93.00
14735;DHT22;7458;49.002;8.472;2023-06-19T02:29:09;22.50;93.10
14735;DHT22;7458;49.002;8.472;2023-06-19T02:31:35;22.50;93.30
14735;DHT22;7458;49.002;8.472;2023-06-19T02:34:01;22.50;94.00
14735;DHT22;7458;49.002;8.472;2023-06-19T02:36:27;22.30;94.00
14735;DHT22;7458;49.002;8.472;2023-06-19T02:38:53;22.70;94.30
14735;DHT22;7458;49.002;8.472;2023-06-19T02:41:19;22.60;94.40
14735;DHT22;7458;49.002;8.472;2023-06-19T02:43:45;22.70;94.80
14735;DHT22;7458;49.002;8.472;2023-06-19T02:46:12;22.70;94.80
14735;DHT22;7458;49.002;8.472;2023-06-19T02:48:38;22.70;95.10
14735;DHT22;7458;49.002;8.472;2023-06-19T02:51:04;22.60;95.10
14735;DHT22;7458;49.002;8.472;2023-06-19T02:53:29;22.70;95.40
14735;DHT22;7458;49.002;8.472;2023-06-19T02:55:55;22.70;96.10
14735;DHT22;7458;49.002;8.472;2023-06-19T02:58:21;22.70;96.00
14735;DHT22;7458;49.002;8.472;2023-06-19T03:00:47;22.80;96.00
14735;DHT22;7458;49.002;8.472;2023-06-19T03:03:13;22.80;95.90
14735;DHT22;7458;49.002;8.472;2023-06-19T03:05:39;22.70;95.50
14735;DHT22;7458;49.002;8.472;2023-06-19T03:08:05;22.60;95.40
14735;DHT22;7458;49.002;8.472;2023-06-19T03:10:31;22.70;95.70
14735;DHT22;7458;49.002;8.472;2023-06-19T03:12:57;22.10;94.90
14735;DHT22;7458;49.002;8.472;2023-06-19T03:15:24;22.60;95.00
14735;DHT22;7458;49.002;8.472;2023-06-19T03:17:51;22.60;95.20
14735;DHT22;7458;49.002;8.472;2023-06-19T03:20:18;22.60;94.90
14735;DHT22;7458;49.002;8.472;2023-06-19T03:22:44;22.70;95.00
14735;DHT22;7458;49.002;8.472;2023-06-19T03:25:10;22.50;95.20
14735;DHT22;7458;49.002;8.472;2023-06-19T03:27:35;22.60;99.90
14735;DHT22;7458;49.002;8.472;2023-06-19T03:30:02;22.60;94.90
14735;DHT22;7458;49.002;8.472;2023-06-19T03:32:33;22.60;94.80
14735;DHT22;7458;49.002;8.472;2023-06-19T03:34:59;22.60;99.90
14735;DHT22;7458;49.002;8.472;2023-06-19T03:37:26;22.90;99.90
14735;DHT22;7458;49.002;8.472;2023-06-19T03:39:52;22.80;99.90
14735;DHT22;7458;49.002;8.472;2023-06-19T03:42:18;22.50;99.90
14735;DHT22;7458;49.002;8.472;2023-06-19T03:44:43;22.70;97.30
14735;DHT22;7458;49.002;8.472;2023-06-19T03:47:09;22.50;97.00
14735;DHT22;7458;49.002;8.472;2023-06-19T03:49:35;22.20;96.50
14735;DHT22;7458;49.002;8.472;2023-06-19T03:52:01;22.60;96.70
14735;DHT22;7458;49.002;8.472;2023-06-19T03:54:27;22.50;96.90
14735;DHT22;7458;49.002;8.472;2023-06-19T03:56:53;22.90;96.80
14735;DHT22;7458;49.002;8.472;2023-06-19T03:59:18;22.50;96.80
14735;DHT22;7458;49.002;8.472;2023-06-19T04:01:44;22.50;96.90
14735;DHT22;7458;49.002;8.472;2023-06-19T04:04:10;22.50;96.40
14735;DHT22;7458;49.002;8.472;2023-06-19T04:06:36;22.40;96.20
14735;DHT22;7458;49.002;8.472;2023-06-19T04:09:01;22.60;96.00
14735;DHT22;7458;49.002;8.472;2023-06-19T04:11:28;22.40;96.10
14735;DHT22;7458;49.002;8.472;2023-06-19T04:13:53;22.40;96.10
14735;DHT22;7458;49.002;8.472;2023-06-19T04:16:19;22.40;96.30
14735;DHT22;7458;49.002;8.472;2023-06-19T04:21:11;22.40;95.90
14735;DHT22;7458;49.002;8.472;2023-06-19T04:23:37;22.40;96.50
14735;DHT22;7458;49.002;8.472;2023-06-19T04:26:03;22.40;96.80
14735;DHT22;7458;49.002;8.472;2023-06-19T04:28:29;22.50;96.60
14735;DHT22;7458;49.002;8.472;2023-06-19T04:30:55;22.40;96.80
14735;DHT22;7458;49.002;8.472;2023-06-19T04:33:27;22.40;96.90
14735;DHT22;7458;49.002;8.472;2023-06-19T04:35:54;22.40;97.00
14735;DHT22;7458;49.002;8.472;2023-06-19T04:38:20;22.40;98.00
14735;DHT22;7458;49.002;8.472;2023-06-19T04:40:52;22.40;97.50
14735;DHT22;7458;49.002;8.472;2023-06-19T04:43:18;22.20;97.70
14735;DHT22;7458;49.002;8.472;2023-06-19T04:45:44;22.30;99.90
14735;DHT22;7458;49.002;8.472;2023-06-19T04:48:10;22.30;98.10
14735;DHT22;7458;49.002;8.472;2023-06-19T04:50:37;22.30;98.20
14735;DHT22;7458;49.002;8.472;2023-06-19T04:53:03;22.20;98.30
14735;DHT22;7458;49.002;8.472;2023-06-19T04:55:29;22.80;99.90
14735;DHT22;7458;49.002;8.472;2023-06-19T04:57:55;22.50;99.90
14735;DHT22;7458;49.002;8.472;2023-06-19T05:00:21;22.60;98.40
14735;DHT22;7458;49.002;8.472;2023-06-19T05:02:49;22.70;98.10
14735;DHT22;7458;49.002;8.472;2023-06-19T05:05:16;22.80;97.70
14735;DHT22;7458;49.002;8.472;2023-06-19T05:07:42;22.60;99.90
14735;DHT22;7458;49.002;8.472;2023-06-19T05:10:08;22.90;97.40
14735;DHT22;7458;49.002;8.472;2023-06-19T05:12:35;23.10;97.20
14735;DHT22;7458;49.002;8.472;2023-06-19T05:15:01;23.20;97.20
14735;DHT22;7458;49.002;8.472;2023-06-19T05:17:27;23.10;97.20
14735;DHT22;7458;49.002;8.472;2023-06-19T05:19:53;23.10;97.30
14735;DHT22;7458;49.002;8.472;2023-06-19T05:22:19;23.00;97.50
14735;DHT22;7458;49.002;8.472;2023-06-19T05:24:47;23.10;97.40
14735;DHT22;7458;49.002;8.472;2023-06-19T05:27:13;23.10;97.40
14735;DHT22;7458;49.002;8.472;2023-06-19T05:32:05;22.90;97.40
14735;DHT22;7458;49.002;8.472;2023-06-19T05:36:58;23.30;97.40
14735;DHT22;7458;49.002;8.472;2023-06-19T05:39:26;23.30;97.60
14735;DHT22;7458;49.002;8.472;2023-06-19T05:41:51;23.30;97.40
14735;DHT22;7458;49.002;8.472;2023-06-19T05:44:17;23.40;97.30
14735;DHT22;7458;49.002;8.472;2023-06-19T05:46:44;23.50;97.20
14735;DHT22;7458;49.002;8.472;2023-06-19T05:51:36;23.70;96.40
14735;DHT22;7458;49.002;8.472;2023-06-19T05:54:02;23.80;96.50
14735;DHT22;7458;49.002;8.472;2023-06-19T05:56:32;24.10;96.40
14735;DHT22;7458;49.002;8.472;2023-06-19T05:58:59;24.60;95.90
14735;DHT22;7458;49.002;8.472;2023-06-19T06:01:26;24.70;94.70
14735;DHT22;7458;49.002;8.472;2023-06-19T06:03:56;24.80;94.90
14735;DHT22;7458;49.002;8.472;2023-06-19T06:06:23;24.80;94.50
14735;DHT22;7458;49.002;8.472;2023-06-19T06:08:49;25.10;94.30
14735;DHT22;7458;49.002;8.472;2023-06-19T06:11:17;25.60;95.20
14735;DHT22;7458;49.002;8.472;2023-06-19T06:13:43;26.10;99.90
14735;DHT22;7458;49.002;8.472;2023-06-19T06:16:08;26.10;93.90
14735;DHT22;7458;49.002;8.472;2023-06-19T06:18:35;26.00;93.10
14735;DHT22;7458;49.002;8.472;2023-06-19T06:21:00;26.20;92.10
14735;DHT22;7458;49.002;8.472;2023-06-19T06:23:26;26.60;93.10
14735;DHT22;7458;49.002;8.472;2023-06-19T06:25:52;26.70;91.40
14735;DHT22;7458;49.002;8.472;2023-06-19T06:28:18;27.00;90.80
14735;DHT22;7458;49.002;8.472;2023-06-19T06:30:43;26.80;90.00
14735;DHT22;7458;49.002;8.472;2023-06-19T06:33:09;27.80;99.90
14735;DHT22;7458;49.002;8.472;2023-06-19T06:35:35;28.30;92.50
14735;DHT22;7458;49.002;8.472;2023-06-19T06:38:02;28.40;82.90
14735;DHT22;7458;49.002;8.472;2023-06-19T06:40:28;28.60;84.60
14735;DHT22;7458;49.002;8.472;2023-06-19T06:42:54;29.70;87.50
14735;DHT22;7458;49.002;8.472;2023-06-19T06:45:20;29.90;75.80
14735;DHT22;7458;49.002;8.472;2023-06-19T06:47:46;30.20;72.90
14735;DHT22;7458;49.002;8.472;2023-06-19T06:50:12;30.60;75.50
14735;DHT22;7458;49.002;8.472;2023-06-19T06:52:38;31.00;66.80
14735;DHT22;7458;49.002;8.472;2023-06-19T06:55:04;31.50;62.90
14735;DHT22;7458;49.002;8.472;2023-06-19T06:57:30;32.60;60.80
14735;DHT22;7458;49.002;8.472;2023-06-19T06:59:56;33.80;58.20
14735;DHT22;7458;49.002;8.472;2023-06-19T07:02:22;34.70;54.10
14735;DHT22;7458;49.002;8.472;2023-06-19T07:04:48;35.80;50.60
14735;DHT22;7458;49.002;8.472;2023-06-19T07:07:13;35.70;50.00
14735;DHT22;7458;49.002;8.472;2023-06-19T07:09:39;35.10;50.10
14735;DHT22;7458;49.002;8.472;2023-06-19T07:12:05;33.90;50.00
14735;DHT22;7458;49.002;8.472;2023-06-19T07:14:32;33.60;50.00
14735;DHT22;7458;49.002;8.472;2023-06-19T07:16:58;32.50;52.20
14735;DHT22;7458;49.002;8.472;2023-06-19T07:19:24;31.10;55.60
14735;DHT22;7458;49.002;8.472;2023-06-19T07:21:50;30.30;57.80
14735;DHT22;7458;49.002;8.472;2023-06-19T07:24:17;29.30;59.90
14735;DHT22;7458;49.002;8.472;2023-06-19T07:26:42;28.70;62.00
14735;DHT22;7458;49.002;8.472;2023-06-19T07:29:08;28.50;62.90
14735;DHT22;7458;49.002;8.472;2023-06-19T07:31:34;28.20;65.70
14735;DHT22;7458;49.002;8.472;2023-06-19T07:34:00;28.10;66.30
14735;DHT22;7458;49.002;8.472;2023-06-19T07:36:25;28.00;66.40
14735;DHT22;7458;49.002;8.472;2023-06-19T07:38:52;28.10;67.00
14735;DHT22;7458;49.002;8.472;2023-06-19T07:41:18;28.10;67.10
14735;DHT22;7458;49.002;8.472;2023-06-19T07:43:44;27.60;67.60
14735;DHT22;7458;49.002;8.472;2023-06-19T07:46:10;27.40;69.50
14735;DHT22;7458;49.002;8.472;2023-06-19T07:48:36;27.20;81.00
14735;DHT22;7458;49.002;8.472;2023-06-19T07:51:02;27.40;70.20
14735;DHT22;7458;49.002;8.472;2023-06-19T07:53:27;27.40;71.00
14735;DHT22;7458;49.002;8.472;2023-06-19T07:55:53;27.30;71.70
14735;DHT22;7458;49.002;8.472;2023-06-19T07:58:19;26.80;80.70
14735;DHT22;7458;49.002;8.472;2023-06-19T08:00:44;27.00;72.40
14735;DHT22;7458;49.002;8.472;2023-06-19T08:03:10;26.40;82.40
14735;DHT22;7458;49.002;8.472;2023-06-19T08:05:36;26.80;82.70
14735;DHT22;7458;49.002;8.472;2023-06-19T08:08:02;26.90;74.50
14735;DHT22;7458;49.002;8.472;2023-06-19T08:10:27;26.80;75.20
14735;DHT22;7458;49.002;8.472;2023-06-19T08:15:20;27.20;74.00
14735;DHT22;7458;49.002;8.472;2023-06-19T08:17:45;28.20;80.50
14735;DHT22;7458;49.002;8.472;2023-06-19T08:20:12;28.50;73.50
14735;DHT22;7458;49.002;8.472;2023-06-19T08:22:37;29.30;70.30
14735;DHT22;7458;49.002;8.472;2023-06-19T08:25:04;28.80;69.10
14735;DHT22;7458;49.002;8.472;2023-06-19T08:27:30;29.10;68.80
14735;DHT22;7458;49.002;8.472;2023-06-19T08:29:56;29.20;69.40
14735;DHT22;7458;49.002;8.472;2023-06-19T08:32:22;29.30;68.90
14735;DHT22;7458;49.002;8.472;2023-06-19T08:34:47;30.10;67.40
14735;DHT22;7458;49.002;8.472;2023-06-19T08:37:13;30.70;66.80
14735;DHT22;7458;49.002;8.472;2023-06-19T08:39:39;31.50;63.50
14735;DHT22;7458;49.002;8.472;2023-06-19T08:42:08;32.60;61.20
14735;DHT22;7458;49.002;8.472;2023-06-19T08:44:35;33.20;58.50
14735;DHT22;7458;49.002;8.472;2023-06-19T08:47:02;32.50;57.90
14735;DHT22;7458;49.002;8.472;2023-06-19T08:49:36;32.10;58.90
14735;DHT22;7458;49.002;8.472;2023-06-19T08:52:02;31.50;59.10
14735;DHT22;7458;49.002;8.472;2023-06-19T08:54:29;30.80;59.90
14735;DHT22;7458;49.002;8.472;2023-06-19T08:56:55;30.20;62.20
14735;DHT22;7458;49.002;8.472;2023-06-19T08:59:21;30.00;63.40
14735;DHT22;7458;49.002;8.472;2023-06-19T09:01:53;30.00;63.70
14735;DHT22;7458;49.002;8.472;2023-06-19T09:04:22;29.40;65.00
14735;DHT22;7458;49.002;8.472;2023-06-19T09:07:01;29.40;66.10
14735;DHT22;7458;49.002;8.472;2023-06-19T09:09:28;29.10;67.20
14735;DHT22;7458;49.002;8.472;2023-06-19T09:12:11;29.60;67.50
14735;DHT22;7458;49.002;8.472;2023-06-19T09:14:43;30.20;66.70
14735;DHT22;7458;49.002;8.472;2023-06-19T09:17:12;30.40;65.00
14735;DHT22;7458;49.002;8.472;2023-06-19T09:19:53;30.10;64.40
14735;DHT22;7458;49.002;8.472;2023-06-19T09:22:22;29.80;65.70
14735;DHT22;7458;49.002;8.472;2023-06-19T09:24:50;29.50;65.50
14735;DHT22;7458;49.002;8.472;2023-06-19T09:27:17;29.50;66.20
14735;DHT22;7458;49.002;8.472;2023-06-19T09:29:46;29.30;66.30
14735;DHT22;7458;49.002;8.472;2023-06-19T09:32:26;29.60;64.90
14735;DHT22;7458;49.002;8.472;2023-06-19T09:34:57;30.00;65.40
14735;DHT22;7458;49.002;8.472;2023-06-19T09:37:27;30.60;64.60
14735;DHT22;7458;49.002;8.472;2023-06-19T09:39:58;30.80;62.30
14735;DHT22;7458;49.002;8.472;2023-06-19T09:42:35;31.00;61.50
14735;DHT22;7458;49.002;8.472;2023-06-19T09:45:04;30.50;61.40
14735;DHT22;7458;49.002;8.472;2023-06-19T09:47:37;30.60;63.50
14735;DHT22;7458;49.002;8.472;2023-06-19T09:50:05;30.60;62.90
14735;DHT22;7458;49.002;8.472;2023-06-19T09:52:33;30.30;63.70
14735;DHT22;7458;49.002;8.472;2023-06-19T09:55:02;30.60;63.90
14735;DHT22;7458;49.002;8.472;2023-06-19T09:57:30;30.90;63.50
14735;DHT22;7458;49.002;8.472;2023-06-19T09:59:58;30.90;62.10
14735;DHT22;7458;49.002;8.472;2023-06-19T10:02:38;30.70;62.30
14735;DHT22;7458;49.002;8.472;2023-06-19T10:05:06;31.00;62.80
14735;DHT22;7458;49.002;8.472;2023-06-19T10:07:38;31.60;68.10
14735;DHT22;7458;49.002;8.472;2023-06-19T10:10:10;31.30;60.40
14735;DHT22;7458;49.002;8.472;2023-06-19T10:12:45;31.20;60.40
14735;DHT22;7458;49.002;8.472;2023-06-19T10:17:53;27.60;64.50
14735;DHT22;7458;49.002;8.472;2023-06-19T10:20:30;31.00;59.60
14735;DHT22;7458;49.002;8.472;2023-06-19T10:23:20;30.80;61.30
14735;DHT22;7458;49.002;8.472;2023-06-19T10:25:59;30.80;61.50
14735;DHT22;7458;49.002;8.472;2023-06-19T10:28:31;30.60;70.80
14735;DHT22;7458;49.002;8.472;2023-06-19T10:31:01;30.60;62.50
14735;DHT22;7458;49.002;8.472;2023-06-19T10:33:31;30.90;72.50
14735;DHT22;7458;49.002;8.472;2023-06-19T10:35:59;30.70;62.20
14735;DHT22;7458;49.002;8.472;2023-06-19T10:38:28;30.60;61.60
14735;DHT22;7458;49.002;8.472;2023-06-19T10:40:54;30.90;62.10
14735;DHT22;7458;49.002;8.472;2023-06-19T10:43:22;30.90;61.80
14735;DHT22;7458;49.002;8.472;2023-06-19T10:45:53;31.00;61.00
14735;DHT22;7458;49.002;8.472;2023-06-19T10:48:23;31.70;60.90
14735;DHT22;7458;49.002;8.472;2023-06-19T10:50:50;31.70;60.30
14735;DHT22;7458;49.002;8.472;2023-06-19T10:53:29;31.80;60.40
14735;DHT22;7458;49.002;8.472;2023-06-19T10:55:57;31.70;59.20
14735;DHT22;7458;49.002;8.472;2023-06-19T10:58:26;31.60;57.60
14735;DHT22;7458;49.002;8.472;2023-06-19T11:00:52;31.90;58.50
14735;DHT22;7458;49.002;8.472;2023-06-19T11:03:22;32.10;57.40
14735;DHT22;7458;49.002;8.472;2023-06-19T11:05:48;32.00;58.00
14735;DHT22;7458;49.002;8.472;2023-06-19T11:08:19;32.20;57.70
14735;DHT22;7458;49.002;8.472;2023-06-19T11:10:45;32.10;58.00
14735;DHT22;7458;49.002;8.472;2023-06-19T11:13:29;32.60;56.90
14735;DHT22;7458;49.002;8.472;2023-06-19T11:15:55;32.80;58.00
14735;DHT22;7458;49.002;8.472;2023-06-19T11:18:23;33.10;57.70
14735;DHT22;7458;49.002;8.472;2023-06-19T11:20:50;33.10;57.80
14735;DHT22;7458;49.002;8.472;2023-06-19T11:23:28;33.00;56.30
14735;DHT22;7458;49.002;8.472;2023-06-19T11:26:05;33.00;55.00
14735;DHT22;7458;49.002;8.472;2023-06-19T11:28:31;32.80;55.20
14735;DHT22;7458;49.002;8.472;2023-06-19T11:31:04;32.80;55.80
14735;DHT22;7458;49.002;8.472;2023-06-19T11:33:30;32.30;55.70
14735;DHT22;7458;49.002;8.472;2023-06-19T11:36:00;31.70;56.50
14735;DHT22;7458;49.002;8.472;2023-06-19T11:38:27;31.80;57.40
14735;DHT22;7458;49.002;8.472;2023-06-19T11:40:54;32.00;57.50
14735;DHT22;7458;49.002;8.472;2023-06-19T11:43:30;32.20;56.60
14735;DHT22;7458;49.002;8.472;2023-06-19T11:46:05;32.10;56.50
14735;DHT22;7458;49.002;8.472;2023-06-19T11:48:36;32.10;57.00
14735;DHT22;7458;49.002;8.472;2023-06-19T11:51:03;32.00;57.10
14735;DHT22;7458;49.002;8.472;2023-06-19T11:53:28;31.90;56.60
14735;DHT22;7458;49.002;8.472;2023-06-19T11:55:55;32.00;56.40
14735;DHT22;7458;49.002;8.472;2023-06-19T11:58:21;32.20;55.80
14735;DHT22;7458;49.002;8.472;2023-06-19T12:00:47;32.30;55.30
14735;DHT22;7458;49.002;8.472;2023-06-19T12:03:13;32.20;55.20
14735;DHT22;7458;49.002;8.472;2023-06-19T12:05:40;32.30;56.10
14735;DHT22;7458;49.002;8.472;2023-06-19T12:08:06;32.40;56.20
14735;DHT22;7458;49.002;8.472;2023-06-19T12:10:33;32.50;55.40
14735;DHT22;7458;49.002;8.472;2023-06-19T12:12:59;32.70;54.60
14735;DHT22;7458;49.002;8.472;2023-06-19T12:15:25;32.90;54.80
14735;DHT22;7458;49.002;8.472;2023-06-19T12:17:52;33.00;63.30
14735;DHT22;7458;49.002;8.472;2023-06-19T12:20:18;32.80;54.80
14735;DHT22;7458;49.002;8.472;2023-06-19T12:22:44;33.00;54.10
14735;DHT22;7458;49.002;8.472;2023-06-19T12:25:10;32.90;54.20
14735;DHT22;7458;49.002;8.472;2023-06-19T12:27:38;33.00;62.60
14735;DHT22;7458;49.002;8.472;2023-06-19T12:30:05;32.90;54.50
14735;DHT22;7458;49.002;8.472;2023-06-19T12:32:34;33.00;54.20
14735;DHT22;7458;49.002;8.472;2023-06-19T12:35:00;32.90;54.60
14735;DHT22;7458;49.002;8.472;2023-06-19T12:37:26;32.70;54.10
14735;DHT22;7458;49.002;8.472;2023-06-19T12:39:51;32.40;53.80
14735;DHT22;7458;49.002;8.472;2023-06-19T12:42:17;31.80;54.10
14735;DHT22;7458;49.002;8.472;2023-06-19T12:44:43;31.70;56.10
14735;DHT22;7458;49.002;8.472;2023-06-19T12:47:10;31.90;56.20
14735;DHT22;7458;49.002;8.472;2023-06-19T12:49:36;31.90;56.40
14735;DHT22;7458;49.002;8.472;2023-06-19T12:52:02;31.80;55.30
14735;DHT22;7458;49.002;8.472;2023-06-19T12:54:28;31.80;55.70
14735;DHT22;7458;49.002;8.472;2023-06-19T12:56:54;31.70;56.60
14735;DHT22;7458;49.002;8.472;2023-06-19T12:59:20;31.60;56.40
14735;DHT22;7458;49.002;8.472;2023-06-19T13:01:46;31.50;56.00
14735;DHT22;7458;49.002;8.472;2023-06-19T13:04:12;31.30;56.10
14735;DHT22;7458;49.002;8.472;2023-06-19T13:06:38;31.20;55.70
14735;DHT22;7458;49.002;8.472;2023-06-19T13:09:05;31.40;56.60
14735;DHT22;7458;49.002;8.472;2023-06-19T13:11:32;31.40;55.80
14735;DHT22;7458;49.002;8.472;2023-06-19T13:14:02;31.60;55.40
14735;DHT22;7458;49.002;8.472;2023-06-19T13:16:28;31.80;55.30
14735;DHT22;7458;49.002;8.472;2023-06-19T13:18:54;31.90;56.30
14735;DHT22;7458;49.002;8.472;2023-06-19T13:21:19;31.90;55.50
14735;DHT22;7458;49.002;8.472;2023-06-19T13:23:45;32.20;55.30
14735;DHT22;7458;49.002;8.472;2023-06-19T13:26:11;32.00;55.20
14735;DHT22;7458;49.002;8.472;2023-06-19T13:28:37;32.20;54.00
14735;DHT22;7458;49.002;8.472;2023-06-19T13:31:03;32.00;54.30
14735;DHT22;7458;49.002;8.472;2023-06-19T13:33:29;32.00;54.50
14735;DHT22;7458;49.002;8.472;2023-06-19T13:35:55;31.90;53.90
14735;DHT22;7458;49.002;8.472;2023-06-19T13:38:20;32.20;53.90
14735;DHT22;7458;49.002;8.472;2023-06-19T13:43:13;32.20;52.00
14735;DHT22;7458;49.002;8.472;2023-06-19T13:45:39;32.30;52.40
14735;DHT22;7458;49.002;8.472;2023-06-19T13:48:05;32.10;51.80
14735;DHT22;7458;49.002;8.472;2023-06-19T13:50:31;32.30;52.50
14735;DHT22;7458;49.002;8.472;2023-06-19T13:52:59;32.40;53.40
14735;DHT22;7458;49.002;8.472;2023-06-19T13:55:25;32.30;53.20
14735;DHT22;7458;49.002;8.472;2023-06-19T13:57:51;32.40;52.20
14735;DHT22;7458;49.002;8.472;2023-06-19T14:00:18;32.50;51.80
14735;DHT22;7458;49.002;8.472;2023-06-19T14:02:44;32.30;52.00
14735;DHT22;7458;49.002;8.472;2023-06-19T14:05:11;32.30;51.90
14735;DHT22;7458;49.002;8.472;2023-06-19T14:07:40;32.30;60.10
14735;DHT22;7458;49.002;8.472;2023-06-19T14:10:10;32.60;61.80
14735;DHT22;7458;49.002;8.472;2023-06-19T14:12:36;32.20;53.70
14735;DHT22;7458;49.002;8.472;2023-06-19T14:15:01;32.30;52.40
14735;DHT22;7458;49.002;8.472;2023-06-19T14:17:27;32.30;53.10
14735;DHT22;7458;49.002;8.472;2023-06-19T14:19:53;32.20;53.00
14735;DHT22;7458;49.002;8.472;2023-06-19T14:22:21;32.60;53.10
14735;DHT22;7458;49.002;8.472;2023-06-19T14:24:47;32.90;52.50
14735;DHT22;7458;49.002;8.472;2023-06-19T14:27:12;32.90;53.10
14735;DHT22;7458;49.002;8.472;2023-06-19T14:29:39;32.90;53.20
14735;DHT22;7458;49.002;8.472;2023-06-19T14:32:04;32.80;53.30
14735;DHT22;7458;49.002;8.472;2023-06-19T14:34:30;32.40;52.70
14735;DHT22;7458;49.002;8.472;2023-06-19T14:36:56;32.40;52.90
14735;DHT22;7458;49.002;8.472;2023-06-19T14:39:22;32.60;53.10
14735;DHT22;7458;49.002;8.472;2023-06-19T14:41:48;32.40;52.70
14735;DHT22;7458;49.002;8.472;2023-06-19T14:44:13;32.30;53.10
14735;DHT22;7458;49.002;8.472;2023-06-19T14:46:40;32.20;53.30
14735;DHT22;7458;49.002;8.472;2023-06-19T14:49:07;32.00;53.30
14735;DHT22;7458;49.002;8.472;2023-06-19T14:51:35;31.90;53.40
14735;DHT22;7458;49.002;8.472;2023-06-19T14:54:04;31.80;53.80
14735;DHT22;7458;49.002;8.472;2023-06-19T14:56:30;31.70;53.90
14735;DHT22;7458;49.002;8.472;2023-06-19T14:58:55;31.70;54.90
14735;DHT22;7458;49.002;8.472;2023-06-19T15:01:21;31.50;54.20
14735;DHT22;7458;49.002;8.472;2023-06-19T15:03:47;31.70;54.20
14735;DHT22;7458;49.002;8.472;2023-06-19T15:06:13;31.40;54.70
14735;DHT22;7458;49.002;8.472;2023-06-19T15:08:38;31.50;54.30
14735;DHT22;7458;49.002;8.472;2023-06-19T15:11:04;31.40;54.50
14735;DHT22;7458;49.002;8.472;2023-06-19T15:13:31;31.50;54.50
14735;DHT22;7458;49.002;8.472;2023-06-19T15:15:58;31.50;54.20
14735;DHT22;7458;49.002;8.472;2023-06-19T15:18:27;31.60;54.40
14735;DHT22;7458;49.002;8.472;2023-06-19T15:20:52;31.70;54.70
14735;DHT22;7458;49.002;8.472;2023-06-19T15:23:19;31.60;54.30
14735;DHT22;7458;49.002;8.472;2023-06-19T15:25:44;31.50;55.00
14735;DHT22;7458;49.002;8.472;2023-06-19T15:28:10;31.50;54.50
14735;DHT22;7458;49.002;8.472;2023-06-19T15:30:36;31.50;54.50
14735;DHT22;7458;49.002;8.472;2023-06-19T15:33:02;31.50;55.00
14735;DHT22;7458;49.002;8.472;2023-06-19T15:35:28;30.70;54.90
14735;DHT22;7458;49.002;8.472;2023-06-19T15:37:54;31.50;64.30
14735;DHT22;7458;49.002;8.472;2023-06-19T15:40:26;31.40;55.10
14735;DHT22;7458;49.002;8.472;2023-06-19T15:42:53;31.30;55.70
14735;DHT22;7458;49.002;8.472;2023-06-19T15:45:19;31.30;55.80
14735;DHT22;7458;49.002;8.472;2023-06-19T15:47:45;31.30;62.90
14735;DHT22;7458;49.002;8.472;2023-06-19T15:50:11;31.30;55.50
14735;DHT22;7458;49.002;8.472;2023-06-19T15:52:37;31.50;63.80
14735;DHT22;7458;49.002;8.472;2023-06-19T15:55:03;31.60;55.80
14735;DHT22;7458;49.002;8.472;2023-06-19T15:57:29;31.80;55.50
14735;DHT22;7458;49.002;8.472;2023-06-19T15:59:56;31.60;54.50
14735;DHT22;7458;49.002;8.472;2023-06-19T16:02:21;31.60;54.30
14735;DHT22;7458;49.002;8.472;2023-06-19T16:04:47;31.40;54.00
14735;DHT22;7458;49.002;8.472;2023-06-19T16:07:13;31.30;54.80
14735;DHT22;7458;49.002;8.472;2023-06-19T16:09:40;31.20;54.80
14735;DHT22;7458;49.002;8.472;2023-06-19T16:12:07;31.40;55.20